createdAt,value
2018-02-11T00:00:58.169Z,1.04
2018-02-11T00:02:08.315Z,1.06
2018-02-11T00:03:18.461Z,1.06
2018-02-11T00:04:28.643Z,1.03
2018-02-11T00:05:38.863Z,0.99
2018-02-11T00:06:49.096Z,0.97
2018-02-11T00:07:59.307Z,0.97
2018-02-11T00:09:09.528Z,1.02
2018-02-11T00:10:19.776Z,1.02
2018-02-11T00:11:30.038Z,0.97
2018-02-11T00:12:39.948Z,1.06
2018-02-11T00:13:50.095Z,1.02
2018-02-11T00:15:00.274Z,0.99
2018-02-11T00:16:10.406Z,1.02
2018-02-11T00:17:20.614Z,0.99
2018-02-11T00:18:30.809Z,0.96
2018-02-11T00:19:41.004Z,0.94
2018-02-11T00:20:51.272Z,0.97
2018-02-11T00:22:01.435Z,0.86
2018-02-11T00:23:11.561Z,1
2018-02-11T00:24:21.460Z,0.86
2018-02-11T00:25:31.612Z,0.88
2018-02-11T00:26:41.479Z,0.97
2018-02-11T00:27:51.616Z,0.92
2018-02-11T00:29:01.757Z,0.79
2018-02-11T00:30:11.906Z,0.92
2018-02-11T00:31:22.031Z,0.88
2018-02-11T00:32:32.188Z,0.84
2018-02-11T00:33:42.530Z,0.94
2018-02-11T00:34:52.639Z,0.81
2018-02-11T00:36:02.770Z,0.86
2018-02-11T00:37:12.947Z,0.82
2018-02-11T00:38:23.088Z,0.88
2018-02-11T00:39:33.340Z,0.81
2018-02-11T00:40:43.069Z,0.9
2018-02-11T00:41:53.207Z,0.82
2018-02-11T00:43:03.512Z,0.74
2018-02-11T00:44:13.648Z,0.78
2018-02-11T00:45:23.835Z,0.74
2018-02-11T00:46:34.114Z,0.76
2018-02-11T00:47:44.238Z,0.71
2018-02-11T00:48:54.388Z,0.63
2018-02-11T00:50:04.514Z,0.56
2018-02-11T00:51:14.632Z,0.57
2018-02-11T00:52:24.515Z,0.56
2018-02-11T00:53:34.627Z,0.54
2018-02-11T00:54:44.776Z,0.48
2018-02-11T00:55:54.995Z,0.53
2018-02-11T00:57:04.836Z,0.39
2018-02-11T00:58:14.970Z,0.43
2018-02-11T00:59:24.825Z,0.4
2018-02-11T01:00:34.986Z,0.45
2018-02-11T01:01:45.148Z,0.49
2018-02-11T01:02:55.037Z,0.57
2018-02-11T01:04:05.404Z,0.5
2018-02-11T01:05:15.581Z,0.45
2018-02-11T01:06:25.705Z,0.43
2018-02-11T01:07:35.827Z,0.57
2018-02-11T01:08:46.053Z,0.49
2018-02-11T01:09:56.289Z,0.48
2018-02-11T01:11:06.426Z,0.48
2018-02-11T01:12:16.665Z,0.53
2018-02-11T01:13:26.811Z,0.53
2018-02-11T01:14:37.073Z,0.54
2018-02-11T01:15:47.519Z,0.56
2018-02-11T01:16:57.662Z,0.5
2018-02-11T01:18:07.830Z,0.56
2018-02-11T01:19:18.054Z,0.5
2018-02-11T01:20:27.887Z,0.54
2018-02-11T01:21:38.040Z,0.6
2018-02-11T01:22:48.151Z,0.54
2018-02-11T01:23:58.030Z,0.56
2018-02-11T01:25:08.203Z,0.54
2018-02-11T01:26:18.344Z,0.5
2018-02-11T01:27:28.489Z,0.45
2018-02-11T01:28:38.654Z,0.46
2018-02-11T01:29:48.801Z,0.31
2018-02-11T01:30:58.940Z,0.21
2018-02-11T01:32:09.073Z,0.22
2018-02-11T01:33:19.121Z,0.12
2018-02-11T01:34:29.324Z,0.11
2018-02-11T01:35:39.502Z,0.17
2018-02-11T01:36:49.632Z,0.11
2018-02-11T01:37:59.735Z,0.12
2018-02-11T01:39:09.883Z,0.12
2018-02-11T01:40:20.046Z,0.14
2018-02-11T01:41:30.281Z,0.06
2018-02-11T01:42:40.416Z,0.08
2018-02-11T01:43:50.640Z,0.05
2018-02-11T01:45:00.745Z,0.11
2018-02-11T01:46:11.036Z,0.09
2018-02-11T01:47:21.144Z,0.06
2018-02-11T01:48:31.275Z,-0.01
2018-02-11T01:49:41.443Z,0.03
2018-02-11T01:50:51.557Z,-0.01
2018-02-11T01:52:01.416Z,-0.07
2018-02-11T01:53:11.557Z,-0.02
2018-02-11T01:54:21.705Z,-0.01
2018-02-11T01:55:31.671Z,-0.15
2018-02-11T01:56:41.790Z,-0.17
2018-02-11T01:57:51.947Z,-0.16
2018-02-11T01:59:02.080Z,-0.1
2018-02-11T02:00:12.280Z,-0.12
2018-02-11T02:01:22.430Z,-0.02
2018-02-11T02:02:32.631Z,-0.06
2018-02-11T02:03:42.554Z,-0.06
2018-02-11T02:04:52.426Z,0.06
2018-02-11T02:06:02.483Z,-0.04
2018-02-11T02:07:12.620Z,-0.02
2018-02-11T02:08:22.838Z,-0.06
2018-02-11T02:09:33.004Z,-0.02
2018-02-11T02:10:43.123Z,0.01
2018-02-11T02:11:53.265Z,-0.09
2018-02-11T02:13:03.126Z,-0.15
2018-02-11T02:14:13.276Z,-0.04
2018-02-11T02:15:23.408Z,-0.06
2018-02-11T02:16:33.521Z,-0.12
2018-02-11T02:17:43.677Z,-0.07
2018-02-11T02:18:53.537Z,-0.17
2018-02-11T02:20:03.690Z,-0.15
2018-02-11T02:21:13.899Z,-0.15
2018-02-11T02:22:24.174Z,-0.12
2018-02-11T02:23:34.025Z,-0.17
2018-02-11T02:24:43.868Z,-0.12
2018-02-11T02:25:54.008Z,-0.19
2018-02-11T02:27:05.096Z,-0.16
2018-02-11T02:28:15.273Z,-0.16
2018-02-11T02:29:25.410Z,-0.12
2018-02-11T02:30:35.312Z,-0.13
2018-02-11T02:31:45.528Z,-0.1
2018-02-11T02:32:55.421Z,-0.16
2018-02-11T02:34:05.535Z,-0.15
2018-02-11T02:35:15.678Z,-0.12
2018-02-11T02:36:25.806Z,-0.16
2018-02-11T02:37:36.033Z,-0.16
2018-02-11T02:38:46.210Z,-0.13
2018-02-11T02:39:56.472Z,-0.16
2018-02-11T02:41:06.728Z,-0.1
2018-02-11T02:42:17.010Z,-0.12
2018-02-11T02:43:27.240Z,-0.15
2018-02-11T02:44:37.381Z,-0.12
2018-02-11T02:45:47.272Z,-0.15
2018-02-11T02:46:57.285Z,-0.15
2018-02-11T02:48:07.468Z,-0.07
2018-02-11T02:49:17.413Z,0.02
2018-02-11T02:50:27.529Z,0.06
2018-02-11T02:51:37.389Z,-0.04
2018-02-11T02:52:47.021Z,0.01
2018-02-11T02:53:56.877Z,0.03
2018-02-11T02:55:07.020Z,-0.02
2018-02-11T02:56:18.117Z,-0.01
2018-02-11T02:57:28.233Z,-0.04
2018-02-11T02:58:39.340Z,-0.13
2018-02-11T02:59:49.439Z,-0.16
2018-02-11T03:00:59.581Z,-0.17
2018-02-11T03:02:09.792Z,-0.17
2018-02-11T03:03:20.008Z,-0.15
2018-02-11T03:04:30.246Z,-0.1
2018-02-11T03:05:40.453Z,-0.16
2018-02-11T03:06:50.616Z,-0.06
2018-02-11T03:08:00.894Z,-0.02
2018-02-11T03:09:11.103Z,-0.06
2018-02-11T03:10:21.313Z,-0.04
2018-02-11T03:11:31.520Z,-0.04
2018-02-11T03:12:41.795Z,-0.06
2018-02-11T03:13:52.013Z,0.03
2018-02-11T03:15:02.187Z,0.06
2018-02-11T03:16:12.391Z,0.02
2018-02-11T03:17:24.457Z,0.06
2018-02-11T03:18:34.736Z,0.09
2018-02-11T03:19:44.969Z,0.09
2018-02-11T03:20:55.107Z,0.06
2018-02-11T03:22:05.252Z,-0.01
2018-02-11T03:23:15.871Z,0.06
2018-02-11T03:24:26.035Z,0.01
2018-02-11T03:25:36.176Z,-0.04
2018-02-11T03:26:46.353Z,-0.09
2018-02-11T03:27:56.544Z,-0.13
2018-02-11T03:29:06.399Z,-0.06
2018-02-11T03:30:16.512Z,-0.09
2018-02-11T03:31:26.676Z,-0.16
2018-02-11T03:32:36.816Z,-0.12
2018-02-11T03:33:46.698Z,-0.23
2018-02-11T03:34:57.855Z,-0.23
2018-02-11T03:36:08.425Z,-0.27
2018-02-11T03:37:18.328Z,-0.3
2018-02-11T03:38:28.585Z,-0.3
2018-02-11T03:39:38.470Z,-0.35
2018-02-11T03:40:48.600Z,-0.25
2018-02-11T03:41:58.951Z,-0.34
2018-02-11T03:43:10.039Z,-0.35
2018-02-11T03:44:20.178Z,-0.28
2018-02-11T03:45:30.297Z,-0.23
2018-02-11T03:46:40.186Z,-0.3
2018-02-11T03:47:50.061Z,-0.2
2018-02-11T03:49:00.165Z,-0.17
2018-02-11T03:50:09.915Z,-0.22
2018-02-11T03:51:20.038Z,-0.2
2018-02-11T03:52:30.347Z,-0.25
2018-02-11T03:53:40.537Z,-0.2
2018-02-11T03:54:50.654Z,-0.2
2018-02-11T03:56:00.980Z,-0.22
2018-02-11T03:57:11.126Z,-0.3
2018-02-11T03:58:21.263Z,-0.23
2018-02-11T03:59:31.415Z,-0.23
2018-02-11T04:00:41.520Z,-0.23
2018-02-11T04:01:51.373Z,-0.28
2018-02-11T04:03:01.496Z,-0.27
2018-02-11T04:04:11.612Z,-0.22
2018-02-11T04:05:21.719Z,-0.23
2018-02-11T04:06:31.831Z,-0.28
2018-02-11T04:07:41.934Z,-0.27
2018-02-11T04:08:51.842Z,-0.25
2018-02-11T04:10:01.707Z,-0.2
2018-02-11T04:11:11.888Z,-0.22
2018-02-11T04:12:22.062Z,-0.28
2018-02-11T04:13:32.321Z,-0.34
2018-02-11T04:14:42.691Z,-0.25
2018-02-11T04:15:52.808Z,-0.25
2018-02-11T04:17:03.141Z,-0.23
2018-02-11T04:18:13.252Z,-0.17
2018-02-11T04:19:23.413Z,-0.17
2018-02-11T04:20:33.756Z,-0.16
2018-02-11T04:21:44.068Z,-0.23
2018-02-11T04:22:53.920Z,-0.19
2018-02-11T04:24:04.026Z,-0.22
2018-02-11T04:25:13.989Z,-0.15
2018-02-11T04:26:24.134Z,-0.12
2018-02-11T04:27:34.259Z,-0.17
2018-02-11T04:28:44.388Z,-0.15
2018-02-11T04:29:54.422Z,-0.22
2018-02-11T04:31:04.625Z,-0.23
2018-02-11T04:32:14.893Z,-0.22
2018-02-11T04:33:25.079Z,-0.25
2018-02-11T04:34:34.962Z,-0.23
2018-02-11T04:35:45.110Z,-0.25
2018-02-11T04:36:55.222Z,-0.2
2018-02-11T04:38:04.873Z,-0.22
2018-02-11T04:39:14.491Z,-0.15
2018-02-11T04:40:24.603Z,-0.22
2018-02-11T04:41:34.733Z,-0.22
2018-02-11T04:42:44.872Z,-0.16
2018-02-11T04:43:54.735Z,-0.12
2018-02-11T04:45:05.096Z,-0.22
2018-02-11T04:46:15.227Z,-0.16
2018-02-11T04:47:25.324Z,-0.2
2018-02-11T04:48:35.450Z,-0.22
2018-02-11T04:49:45.309Z,-0.22
2018-02-11T04:50:55.437Z,-0.2
2018-02-11T04:52:05.530Z,-0.13
2018-02-11T04:53:15.683Z,-0.19
2018-02-11T04:54:25.783Z,-0.16
2018-02-11T04:55:36.161Z,-0.23
2018-02-11T04:56:46.299Z,-0.19
2018-02-11T04:57:56.176Z,-0.22
2018-02-11T04:59:06.308Z,-0.2
2018-02-11T05:00:16.410Z,-0.22
2018-02-11T05:01:26.547Z,-0.19
2018-02-11T05:02:36.414Z,-0.15
2018-02-11T05:03:46.300Z,-0.16
2018-02-11T05:04:56.401Z,-0.27
2018-02-11T05:06:07.494Z,-0.2
2018-02-11T05:07:17.618Z,-0.22
2018-02-11T05:08:27.495Z,-0.16
2018-02-11T05:09:37.370Z,-0.13
2018-02-11T05:10:47.494Z,-0.17
2018-02-11T05:11:57.628Z,-0.09
2018-02-11T05:13:07.773Z,-0.12
2018-02-11T05:14:17.910Z,-0.19
2018-02-11T05:15:28.025Z,-0.09
2018-02-11T05:16:38.142Z,-0.1
2018-02-11T05:17:48.262Z,-0.15
2018-02-11T05:18:58.402Z,-0.12
2018-02-11T05:20:08.513Z,-0.12
2018-02-11T05:21:18.455Z,-0.15
2018-02-11T05:22:28.591Z,-0.13
2018-02-11T05:23:38.796Z,-0.1
2018-02-11T05:24:48.989Z,-0.15
2018-02-11T05:25:59.294Z,-0.16
2018-02-11T05:27:09.500Z,-0.16
2018-02-11T05:28:19.606Z,-0.15
2018-02-11T05:29:30.770Z,-0.13
2018-02-11T05:30:41.847Z,-0.04
2018-02-11T05:31:51.742Z,-0.02
2018-02-11T05:33:01.975Z,-0.12
2018-02-11T05:34:12.082Z,-0.16
2018-02-11T05:35:22.223Z,-0.12
2018-02-11T05:36:32.349Z,-0.12
2018-02-11T05:37:42.503Z,-0.15
2018-02-11T05:38:52.677Z,-0.16
2018-02-11T05:40:02.876Z,-0.09
2018-02-11T05:41:13.055Z,-0.07
2018-02-11T05:42:23.310Z,-0.13
2018-02-11T05:43:33.482Z,-0.13
2018-02-11T05:44:43.592Z,-0.1
2018-02-11T05:45:53.710Z,-0.16
2018-02-11T05:47:03.865Z,-0.12
2018-02-11T05:48:14.038Z,-0.1
2018-02-11T05:49:24.202Z,-0.12
2018-02-11T05:50:34.372Z,-0.1
2018-02-11T05:51:45.475Z,-0.15
2018-02-11T05:52:55.716Z,-0.15
2018-02-11T05:54:05.617Z,-0.09
2018-02-11T05:55:15.824Z,-0.13
2018-02-11T05:56:25.999Z,-0.09
2018-02-11T05:57:35.875Z,-0.12
2018-02-11T05:58:46.063Z,-0.13
2018-02-11T05:59:56.168Z,-0.13
2018-02-11T06:01:06.324Z,-0.1
2018-02-11T06:02:16.474Z,-0.1
2018-02-11T06:03:26.602Z,-0.06
2018-02-11T06:04:36.710Z,-0.15
2018-02-11T06:05:46.831Z,-0.16
2018-02-11T06:06:56.716Z,-0.09
2018-02-11T06:08:06.887Z,-0.13
2018-02-11T06:09:16.981Z,-0.16
2018-02-11T06:10:26.844Z,-0.15
2018-02-11T06:11:36.953Z,-0.13
2018-02-11T06:12:47.079Z,-0.15
2018-02-11T06:13:57.193Z,-0.1
2018-02-11T06:15:07.331Z,-0.13
2018-02-11T06:16:16.889Z,-0.1
2018-02-11T06:17:26.458Z,-0.15
2018-02-11T06:18:36.590Z,-0.15
2018-02-11T06:19:46.698Z,-0.17
2018-02-11T06:20:56.826Z,-0.13
2018-02-11T06:22:06.989Z,-0.09
2018-02-11T06:23:17.159Z,-0.12
2018-02-11T06:24:27.383Z,-0.1
2018-02-11T06:25:37.554Z,-0.13
2018-02-11T06:26:47.479Z,-0.12
2018-02-11T06:27:57.847Z,-0.13
2018-02-11T06:29:07.988Z,-0.15
2018-02-11T06:30:17.840Z,-0.09
2018-02-11T06:31:28.007Z,-0.16
2018-02-11T06:32:37.950Z,-0.13
2018-02-11T06:33:48.159Z,-0.15
2018-02-11T06:34:58.013Z,-0.12
2018-02-11T06:36:08.156Z,-0.1
2018-02-11T06:37:18.300Z,-0.1
2018-02-11T06:38:28.432Z,-0.16
2018-02-11T06:39:38.538Z,-0.01
2018-02-11T06:40:48.333Z,-0.04
2018-02-11T06:41:58.455Z,-0.01
2018-02-11T06:43:08.621Z,0.02
2018-02-11T06:44:18.492Z,-0.02
2018-02-11T06:45:28.599Z,-0.04
2018-02-11T06:46:38.716Z,-0.01
2018-02-11T06:47:48.984Z,0.08
2018-02-11T06:48:59.198Z,0.05
2018-02-11T06:50:09.517Z,0.03
2018-02-11T06:51:20.046Z,0.05
2018-02-11T06:52:30.258Z,-0.01
2018-02-11T06:53:40.202Z,0.05
2018-02-11T06:54:50.403Z,-0.01
2018-02-11T06:56:00.559Z,-0.04
2018-02-11T06:57:10.449Z,0.01
2018-02-11T06:58:20.558Z,-0.02
2018-02-11T06:59:30.703Z,0.03
2018-02-11T07:00:41.879Z,-0.02
2018-02-11T07:01:52.018Z,0.02
2018-02-11T07:03:01.873Z,-0.04
2018-02-11T07:04:12.049Z,0.02
2018-02-11T07:05:21.720Z,0.05
2018-02-11T07:06:31.971Z,-0.04
2018-02-11T07:07:42.110Z,-0.04
2018-02-11T07:08:52.349Z,-0.06
2018-02-11T07:10:02.207Z,-0.07
2018-02-11T07:11:12.333Z,-0.07
2018-02-11T07:12:22.213Z,0.01
2018-02-11T07:13:32.070Z,-0.07
2018-02-11T07:14:42.176Z,-0.06
2018-02-11T07:15:52.376Z,-0.04
2018-02-11T07:17:02.517Z,0.02
2018-02-11T07:18:12.720Z,-0.04
2018-02-11T07:19:22.965Z,-0.02
2018-02-11T07:20:33.142Z,0.03
2018-02-11T07:21:43.261Z,-0.06
2018-02-11T07:22:53.175Z,0.02
2018-02-11T07:24:02.746Z,-0.13
2018-02-11T07:25:12.852Z,-0.02
2018-02-11T07:26:22.968Z,0.05
2018-02-11T07:27:33.110Z,0.05
2018-02-11T07:28:42.989Z,0.03
2018-02-11T07:29:53.143Z,0.02
2018-02-11T07:31:02.953Z,0.06
2018-02-11T07:32:14.045Z,0.03
2018-02-11T07:33:24.221Z,0.03
2018-02-11T07:34:34.451Z,0.08
2018-02-11T07:35:44.576Z,0.01
2018-02-11T07:36:54.741Z,0.09
2018-02-11T07:38:04.863Z,0.08
2018-02-11T07:39:14.772Z,0.09
2018-02-11T07:40:24.720Z,0.09
2018-02-11T07:41:34.839Z,0.06
2018-02-11T07:42:44.954Z,0.11
2018-02-11T07:43:55.157Z,0.09
2018-02-11T07:45:05.285Z,0.03
2018-02-11T07:46:15.279Z,0.17
2018-02-11T07:47:25.440Z,0.16
2018-02-11T07:48:35.625Z,0.2
2018-02-11T07:49:45.765Z,0.22
2018-02-11T07:50:55.960Z,0.22
2018-02-11T07:52:06.350Z,0.25
2018-02-11T07:53:16.966Z,0.22
2018-02-11T07:54:27.144Z,0.17
2018-02-11T07:55:37.299Z,0.22
2018-02-11T07:56:47.434Z,0.21
2018-02-11T07:57:57.543Z,0.21
2018-02-11T07:59:07.173Z,0.17
2018-02-11T08:00:17.208Z,0.14
2018-02-11T08:01:27.439Z,0.22
2018-02-11T08:02:37.347Z,0.17
2018-02-11T08:03:47.344Z,0.22
2018-02-11T08:04:57.490Z,0.27
2018-02-11T08:06:07.233Z,0.3
2018-02-11T08:07:17.346Z,0.42
2018-02-11T08:08:27.477Z,0.42
2018-02-11T08:09:37.647Z,0.58
2018-02-11T08:10:47.514Z,0.74
2018-02-11T08:11:58.611Z,0.81
2018-02-11T08:13:08.759Z,1.15
2018-02-11T08:14:18.895Z,1.53
2018-02-11T08:15:29.025Z,2.05
2018-02-11T08:16:38.991Z,2.27
2018-02-11T08:17:49.229Z,3.04
2018-02-11T08:18:59.378Z,3.73
2018-02-11T08:20:09.664Z,3.93
2018-02-11T08:21:19.793Z,4
2018-02-11T08:22:29.922Z,4
2018-02-11T08:23:39.950Z,4.38
2018-02-11T08:24:50.082Z,4.93
2018-02-11T08:26:00.281Z,4.78
2018-02-11T08:27:10.473Z,4.23
2018-02-11T08:28:20.669Z,3.87
2018-02-11T08:29:30.793Z,3.54
2018-02-11T08:30:40.897Z,3.08
2018-02-11T08:31:51.012Z,2.77
2018-02-11T08:33:01.265Z,2.44
2018-02-11T08:34:11.398Z,2.27
2018-02-11T08:35:21.189Z,2.03
2018-02-11T08:36:31.358Z,1.84
2018-02-11T08:37:41.495Z,1.69
2018-02-11T08:38:51.389Z,1.5
2018-02-11T08:40:01.538Z,1.43
2018-02-11T08:41:11.710Z,1.35
2018-02-11T08:42:21.917Z,1.24
2018-02-11T08:43:32.157Z,1.2
2018-02-11T08:44:42.338Z,1.14
2018-02-11T08:45:52.508Z,1.03
2018-02-11T08:47:02.635Z,1.06
2018-02-11T08:48:12.762Z,1.02
2018-02-11T08:49:22.682Z,0.96
2018-02-11T08:50:32.816Z,0.85
2018-02-11T08:51:42.965Z,0.93
2018-02-11T08:52:53.132Z,0.84
2018-02-11T08:54:03.288Z,0.81
2018-02-11T08:55:13.449Z,0.67
2018-02-11T08:56:24.591Z,0.75
2018-02-11T08:57:34.456Z,0.67
2018-02-11T08:58:44.589Z,0.68
2018-02-11T08:59:54.466Z,0.68
2018-02-11T09:01:04.594Z,0.79
2018-02-11T09:02:14.451Z,0.67
2018-02-11T09:03:24.597Z,0.84
2018-02-11T09:04:34.715Z,0.82
2018-02-11T09:05:44.861Z,0.82
2018-02-11T09:06:55.001Z,0.86
2018-02-11T09:08:05.134Z,0.94
2018-02-11T09:09:15.273Z,0.86
2018-02-11T09:10:25.488Z,0.96
2018-02-11T09:11:35.657Z,1.04
2018-02-11T09:12:45.527Z,1.03
2018-02-11T09:13:55.768Z,1.03
2018-02-11T09:15:05.910Z,1.06
2018-02-11T09:16:17.008Z,1.06
2018-02-11T09:17:27.152Z,1
2018-02-11T09:18:37.301Z,0.99
2018-02-11T09:19:47.656Z,1.06
2018-02-11T09:20:57.593Z,1.03
2018-02-11T09:22:07.706Z,1
2018-02-11T09:23:17.874Z,1.1
2018-02-11T09:24:28.005Z,1.14
2018-02-11T09:25:38.225Z,1.18
2018-02-11T09:26:48.096Z,1.22
2018-02-11T09:27:58.243Z,1.14
2018-02-11T09:29:08.403Z,1.2
2018-02-11T09:30:18.551Z,1.17
2018-02-11T09:31:28.774Z,1.14
2018-02-11T09:32:38.964Z,1.04
2018-02-11T09:33:49.198Z,1.03
2018-02-11T09:34:59.514Z,1.1
2018-02-11T09:36:09.701Z,0.97
2018-02-11T09:37:19.981Z,0.97
2018-02-11T09:38:30.285Z,0.93
2018-02-11T09:39:40.438Z,0.9
2018-02-11T09:40:51.579Z,0.74
2018-02-11T09:42:01.625Z,0.76
2018-02-11T09:43:11.174Z,0.81
2018-02-11T09:44:21.363Z,0.74
2018-02-11T09:45:31.253Z,0.68
2018-02-11T09:46:41.387Z,0.61
2018-02-11T09:47:51.515Z,0.74
2018-02-11T09:49:01.765Z,0.68
2018-02-11T09:50:12.039Z,0.63
2018-02-11T09:51:22.219Z,0.67
2018-02-11T09:52:33.317Z,0.6
2018-02-11T09:53:43.554Z,0.56
2018-02-11T09:54:53.791Z,0.49
2018-02-11T09:56:03.981Z,0.38
2018-02-11T09:57:14.203Z,0.42
2018-02-11T09:58:24.531Z,0.28
2018-02-11T09:59:34.448Z,0.31
2018-02-11T10:00:44.589Z,0.35
2018-02-11T10:01:54.498Z,0.3
2018-02-11T10:03:04.646Z,0.22
2018-02-11T10:04:15.753Z,0.24
2018-02-11T10:05:25.917Z,0.22
2018-02-11T10:06:36.097Z,0.22
2018-02-11T10:07:46.290Z,0.21
2018-02-11T10:08:56.436Z,0.2
2018-02-11T10:10:06.722Z,0.17
2018-02-11T10:11:17.016Z,0.24
2018-02-11T10:12:27.221Z,0.22
2018-02-11T10:13:37.493Z,0.25
2018-02-11T10:14:47.635Z,0.33
2018-02-11T10:15:57.176Z,0.36
2018-02-11T10:17:07.355Z,0.36
2018-02-11T10:18:17.565Z,0.35
2018-02-11T10:19:27.747Z,0.35
2018-02-11T10:20:38.877Z,0.43
2018-02-11T10:21:48.663Z,0.4
2018-02-11T10:22:58.797Z,0.45
2018-02-11T10:24:08.988Z,0.45
2018-02-11T10:25:19.145Z,0.56
2018-02-11T10:26:30.280Z,0.58
2018-02-11T10:27:40.051Z,0.56
2018-02-11T10:28:50.255Z,0.6
2018-02-11T10:30:00.433Z,0.58
2018-02-11T10:31:11.577Z,0.71
2018-02-11T10:32:21.737Z,0.64
2018-02-11T10:33:31.909Z,0.71
2018-02-11T10:34:41.838Z,0.64
2018-02-11T10:35:52.103Z,0.64
2018-02-11T10:37:01.970Z,0.67
2018-02-11T10:38:12.130Z,0.74
2018-02-11T10:39:22.251Z,0.64
2018-02-11T10:40:32.411Z,0.76
2018-02-11T10:41:42.616Z,0.63
2018-02-11T10:42:52.978Z,0.76
2018-02-11T10:44:03.173Z,0.66
2018-02-11T10:45:13.308Z,0.78
2018-02-11T10:46:23.609Z,0.71
2018-02-11T10:47:33.850Z,0.71
2018-02-11T10:48:44.027Z,0.78
2018-02-11T10:49:54.206Z,0.78
2018-02-11T10:51:04.389Z,0.79
2018-02-11T10:52:14.716Z,0.63
2018-02-11T10:53:24.943Z,0.66
2018-02-11T10:54:35.130Z,0.74
2018-02-11T10:55:45.394Z,0.68
2018-02-11T10:56:55.604Z,0.6
2018-02-11T10:58:05.776Z,0.6
2018-02-11T10:59:16.463Z,0.63
2018-02-11T11:00:26.618Z,0.61
2018-02-11T11:01:36.869Z,0.57
2018-02-11T11:02:46.420Z,0.56
2018-02-11T11:03:56.574Z,0.53
2018-02-11T11:05:06.747Z,0.53
2018-02-11T11:06:16.929Z,0.49
2018-02-11T11:07:27.084Z,0.39
2018-02-11T11:08:37.231Z,0.4
2018-02-11T11:09:47.472Z,0.4
2018-02-11T11:10:57.638Z,0.43
2018-02-11T11:12:07.824Z,0.4
2018-02-11T11:13:18.148Z,0.43
2018-02-11T11:14:28.342Z,0.43
2018-02-11T11:15:38.520Z,0.27
2018-02-11T11:16:48.689Z,0.3
2018-02-11T11:17:58.891Z,0.36
2018-02-11T11:19:09.036Z,0.35
2018-02-11T11:20:18.837Z,0.35
2018-02-11T11:21:28.954Z,0.36
2018-02-11T11:22:39.096Z,0.42
2018-02-11T11:23:49.235Z,0.36
2018-02-11T11:24:59.355Z,0.35
2018-02-11T11:26:09.496Z,0.43
2018-02-11T11:27:19.713Z,0.48
2018-02-11T11:28:29.870Z,0.53
2018-02-11T11:29:40.017Z,0.56
2018-02-11T11:30:50.191Z,0.58
2018-02-11T11:32:00.347Z,0.6
2018-02-11T11:33:10.521Z,0.66
2018-02-11T11:34:20.717Z,0.64
2018-02-11T11:35:30.959Z,0.72
2018-02-11T11:36:41.251Z,0.78
2018-02-11T11:37:51.467Z,0.88
2018-02-11T11:39:01.718Z,0.85
2018-02-11T11:40:11.891Z,0.78
2018-02-11T11:41:22.086Z,0.81
2018-02-11T11:42:32.278Z,0.86
2018-02-11T11:43:42.538Z,0.82
2018-02-11T11:44:52.731Z,0.86
2018-02-11T11:46:02.982Z,0.88
2018-02-11T11:47:13.243Z,0.88
2018-02-11T11:48:23.507Z,0.86
2018-02-11T11:49:33.715Z,0.9
2018-02-11T11:50:43.939Z,0.9
2018-02-11T11:51:54.195Z,0.88
2018-02-11T11:53:04.377Z,0.94
2018-02-11T11:54:14.541Z,0.88
2018-02-11T11:55:24.754Z,0.97
2018-02-11T11:56:34.945Z,0.99
2018-02-11T11:57:45.274Z,0.99
2018-02-11T11:58:55.174Z,0.99
2018-02-11T12:00:05.390Z,0.99
2018-02-11T12:01:15.609Z,1.02
2018-02-11T12:02:25.790Z,0.99
2018-02-11T12:03:35.983Z,1.02
2018-02-11T12:04:46.206Z,1.02
2018-02-11T12:05:56.364Z,1.04
2018-02-11T12:07:06.565Z,1.08
2018-02-11T12:08:16.795Z,1.04
2018-02-11T12:09:26.980Z,1.11
2018-02-11T12:10:37.184Z,1.02
2018-02-11T12:11:47.397Z,1.03
2018-02-11T12:12:57.675Z,1.14
2018-02-11T12:14:07.925Z,1.17
2018-02-11T12:15:18.108Z,1.14
2018-02-11T12:16:28.301Z,1.11
2018-02-11T12:17:38.569Z,1.21
2018-02-11T12:18:48.787Z,1.22
2018-02-11T12:19:58.995Z,1.29
2018-02-11T12:21:09.237Z,1.2
2018-02-11T12:22:19.449Z,1.22
2018-02-11T12:23:29.674Z,1.25
2018-02-11T12:24:39.887Z,1.17
2018-02-11T12:25:50.160Z,1.17
2018-02-11T12:27:00.437Z,1.2
2018-02-11T12:28:10.455Z,1.18
2018-02-11T12:29:20.632Z,1.21
2018-02-11T12:30:30.854Z,1.25
2018-02-11T12:31:40.725Z,1.32
2018-02-11T12:32:50.938Z,1.32
2018-02-11T12:34:01.161Z,1.33
2018-02-11T12:35:11.436Z,1.39
2018-02-11T12:36:21.642Z,1.4
2018-02-11T12:37:31.831Z,1.46
2018-02-11T12:38:42.031Z,1.51
2018-02-11T12:39:52.286Z,1.47
2018-02-11T12:41:02.449Z,1.54
2018-02-11T12:42:12.644Z,1.55
2018-02-11T12:43:22.817Z,1.55
2018-02-11T12:44:33.050Z,1.55
2018-02-11T12:45:43.290Z,1.57
2018-02-11T12:46:53.612Z,1.53
2018-02-11T12:48:03.805Z,1.53
2018-02-11T12:49:13.988Z,1.54
2018-02-11T12:50:24.224Z,1.55
2018-02-11T12:51:34.418Z,1.6
2018-02-11T12:52:44.722Z,1.6
2018-02-11T12:53:54.894Z,1.55
2018-02-11T12:55:05.141Z,1.58
2018-02-11T12:56:15.322Z,1.58
2018-02-11T12:57:25.533Z,1.72
2018-02-11T12:58:35.763Z,1.67
2018-02-11T12:59:45.958Z,1.76
2018-02-11T13:00:55.601Z,1.73
2018-02-11T13:02:05.799Z,1.74
2018-02-11T13:03:16.037Z,1.76
2018-02-11T13:04:26.302Z,1.73
2018-02-11T13:05:36.566Z,1.72
2018-02-11T13:06:46.767Z,1.82
2018-02-11T13:07:57.042Z,1.8
2018-02-11T13:09:07.255Z,1.79
2018-02-11T13:10:17.438Z,1.87
2018-02-11T13:11:27.590Z,1.9
2018-02-11T13:12:37.783Z,1.85
2018-02-11T13:13:48.134Z,1.88
2018-02-11T13:14:58.297Z,1.87
2018-02-11T13:16:08.521Z,1.9
2018-02-11T13:17:18.773Z,1.94
2018-02-11T13:18:29.034Z,2
2018-02-11T13:19:39.223Z,1.94
2018-02-11T13:20:49.495Z,2
2018-02-11T13:21:59.678Z,2.03
2018-02-11T13:23:09.828Z,2.06
2018-02-11T13:24:20.093Z,1.92
2018-02-11T13:25:30.286Z,2.03
2018-02-11T13:26:40.544Z,2.01
2018-02-11T13:27:50.785Z,2
2018-02-11T13:29:01.009Z,1.95
2018-02-11T13:30:11.216Z,2.01
2018-02-11T13:31:21.406Z,2
2018-02-11T13:32:31.587Z,2.03
2018-02-11T13:33:41.578Z,2.06
2018-02-11T13:34:51.742Z,2.09
2018-02-11T13:36:01.940Z,2.05
2018-02-11T13:37:12.161Z,2.09
2018-02-11T13:38:22.329Z,2.08
2018-02-11T13:39:31.857Z,2.15
2018-02-11T13:40:42.047Z,2.18
2018-02-11T13:41:52.252Z,2.24
2018-02-11T13:43:02.461Z,2.21
2018-02-11T13:44:12.595Z,2.15
2018-02-11T13:45:22.776Z,2.26
2018-02-11T13:46:32.942Z,2.28
2018-02-11T13:47:43.105Z,2.27
2018-02-11T13:48:53.031Z,2.27
2018-02-11T13:50:03.165Z,2.27
2018-02-11T13:51:13.336Z,2.24
2018-02-11T13:52:23.269Z,2.27
2018-02-11T13:53:33.457Z,2.26
2018-02-11T13:54:43.271Z,2.31
2018-02-11T13:55:53.157Z,2.34
2018-02-11T13:57:03.418Z,2.37
2018-02-11T13:58:13.588Z,2.33
2018-02-11T13:59:23.742Z,2.37
2018-02-11T14:00:33.912Z,2.31
2018-02-11T14:01:44.209Z,2.44
2018-02-11T14:02:54.562Z,2.41
2018-02-11T14:04:04.481Z,2.49
2018-02-11T14:05:14.696Z,2.59
2018-02-11T14:06:24.897Z,2.6
2018-02-11T14:07:35.080Z,2.66
2018-02-11T14:08:45.241Z,2.73
2018-02-11T14:09:55.399Z,2.79
2018-02-11T14:11:05.676Z,2.82
2018-02-11T14:12:15.832Z,2.85
2018-02-11T14:13:25.810Z,2.96
2018-02-11T14:14:35.983Z,3.02
2018-02-11T14:15:46.143Z,3
2018-02-11T14:16:56.409Z,3.04
2018-02-11T14:18:06.584Z,3.06
2018-02-11T14:19:16.733Z,3.07
2018-02-11T14:20:26.901Z,3.1
2018-02-11T14:21:37.084Z,3.13
2018-02-11T14:22:47.009Z,3.11
2018-02-11T14:23:57.196Z,3.08
2018-02-11T14:25:07.348Z,2.96
2018-02-11T14:26:17.587Z,2.91
2018-02-11T14:27:27.836Z,2.96
2018-02-11T14:28:38.006Z,2.81
2018-02-11T14:29:47.906Z,2.91
2018-02-11T14:30:58.068Z,2.84
2018-02-11T14:32:08.235Z,2.91
2018-02-11T14:33:18.536Z,2.92
2018-02-11T14:34:28.757Z,2.87
2018-02-11T14:35:39.043Z,2.87
2018-02-11T14:36:49.214Z,2.97
2018-02-11T14:37:59.214Z,2.82
2018-02-11T14:39:09.391Z,2.91
2018-02-11T14:40:19.546Z,2.96
2018-02-11T14:41:29.774Z,2.94
2018-02-11T14:42:39.960Z,2.91
2018-02-11T14:43:50.111Z,2.85
2018-02-11T14:45:00.262Z,2.91
2018-02-11T14:46:10.429Z,2.89
2018-02-11T14:47:20.574Z,2.88
2018-02-11T14:48:30.747Z,2.85
2018-02-11T14:49:40.978Z,2.82
2018-02-11T14:50:51.237Z,2.87
2018-02-11T14:52:01.475Z,2.87
2018-02-11T14:53:11.703Z,2.81
2018-02-11T14:54:21.908Z,2.81
2018-02-11T14:55:32.125Z,2.78
2018-02-11T14:56:43.260Z,2.73
2018-02-11T14:57:53.433Z,2.73
2018-02-11T14:59:03.705Z,2.74
2018-02-11T15:00:13.977Z,2.7
2018-02-11T15:01:24.206Z,2.71
2018-02-11T15:02:34.351Z,2.66
2018-02-11T15:03:44.628Z,2.71
2018-02-11T15:04:54.803Z,2.59
2018-02-11T15:06:05.016Z,2.49
2018-02-11T15:07:16.491Z,2.52
2018-02-11T15:08:26.764Z,2.51
2018-02-11T15:09:37.150Z,2.52
2018-02-11T15:10:47.578Z,2.52
2018-02-11T15:11:57.764Z,2.53
2018-02-11T15:13:08.034Z,2.46
2018-02-11T15:14:18.238Z,2.49
2018-02-11T15:15:28.409Z,2.53
2018-02-11T15:16:38.595Z,2.6
2018-02-11T15:17:48.740Z,2.56
2018-02-11T15:18:59.210Z,2.6
2018-02-11T15:20:09.409Z,2.51
2018-02-11T15:21:19.587Z,2.46
2018-02-11T15:22:29.737Z,2.45
2018-02-11T15:23:39.953Z,2.52
2018-02-11T15:24:50.120Z,2.51
2018-02-11T15:26:00.026Z,2.44
2018-02-11T15:27:10.172Z,2.45
2018-02-11T15:28:20.334Z,2.45